Raytown, MO

4:28 AM CST on December 18, 2014 (GMT -0600)
Gateway to Faery | Change Station
CLOSE
Current Station
Personal Weather Station
Location: Raytown, MO
Elevation: 991 ft
Nearby Weather Stations
Active Advisory: Winter Weather Advisory

Elev 991 ft 38.98 °N, 94.45 °W | Updated 1 second ago

Snow
Snow
27.7 °F
Feels Like 28 °F
N
0.0
Wind Variable Wind from SE
Gusts 0.2 mph

Today
High -- | Low -- °F
--% Chance of Precip.
Yesterday
High -- | Low -- °F
Precip. -- in
7:31 AM 4:57 PM
Waning Crescent, 15% visible
Pressure 30.21 in
Visibility 2.5 miles
Clouds Overcast 2300 ft
Windchill 28 °F
Dew Point Not available.
Humidity Not available.
Rainfall 0.00 in
Snow Depth Not available.
UV 0 out of 12
Pollen .10 out of 12
Air Quality Not available.
Flu Activity Not available.
SPECI KLXT 181013Z AUTO 07005KT 2 1/2SM -SN BR OVC023 M02/M03 A3021 RMK AO2 P0000 T10221033 TSNO

More Conditions Fewer Conditions

Pressure 30.21 in
Visibility 2.5 miles
Clouds Overcast 2300 ft
Windchill 28 °F
Dew Point Not available.
Humidity Not available.
Rainfall 0.00 in
Snow Depth Not available.
UV 0 out of 12
Pollen .10 out of 12
Air Quality Not available.
Flu Activity Not available.
SPECI KLXT 181013Z AUTO 07005KT 2 1/2SM -SN BR OVC023 M02/M03 A3021 RMK AO2 P0000 T10221033 TSNO

More Conditions Fewer Conditions

10-Day Weather Forecast

Almanac

Astronomy

Dec. 18, 2014 Rise Set
Actual Time
Civil Twilight
Nautical Twilight
Astronomical Twilight
Moon
Length of Visible Light
Length of Day
Tomorrow will be .
, % of the Moon is Illuminated

Today's Extremes

State Highs State Lows

Community

WunderPhotos

Upload Photos

1,778,907 photos uploaded!

WunderBlogs® & News

Nearby

Air Quality

  Air Quality AQ Index Pollutant
Not available.

Snow Depth

Station Depth Elevation

Earthquake Activity

City Distance Mag. Time & Date
Minimum magnitude displayed is 2.5.

Coastal Water Temperatures

Place Temperature

Nearby Weather Stations